Latest Weather Observations for Norah Head

IDN60801

Issued at 3:03 pm EST Monday 6 July 2015 (issued every 30 minutes, with the page automatically refreshed every 10 minutes)

About weather observations | Map of weather stations | Latest weather observations for NSW | Other Formats
Station Details ID: 061366 Name: NORAH HEAD AWS Lat: -33.28 Lon: 151.58 Height: 18.8 m
Data from the previous 72 hours. | See also: Recent months at Norah Head
Date/Time
EST
Temp
°C
App
Temp
°C
Dew
Point
Rel
Hum
%
Delta-T
°C
Wind Press
QNH
hPa
Press
MSL
hPa
Rain
since 9 am
mm
Dir
 
Spd
km/h
Gust
km/h
Spd
kts
Gust
kts
06/03:00pm 16.7 13.7 2.0 37 6.6 WNW 7 19 4 10 1013.3 1013.3 0.0
06/02:30pm 17.2 14.2 2.0 36 6.8 W 7 17 4 9 1013.2 1013.2 0.0
06/02:00pm 17.1 14.3 2.3 37 6.7 WNW 6 13 3 7 1013.2 1013.2 0.0
06/01:30pm 16.3 13.3 2.0 38 6.4 W 7 13 4 7 1013.4 1013.4 0.0
06/01:00pm 16.3 13.7 3.0 41 6.1 W 6 17 3 9 1013.7 1013.7 0.0
06/12:30pm 15.7 12.4 2.2 40 6.0 WNW 9 24 5 13 1014.2 1014.2 0.0
06/12:00pm 15.0 11.7 2.2 42 5.7 W 9 19 5 10 1014.8 1014.8 0.0
06/11:30am 14.8 11.4 2.0 42 5.6 WNW 9 20 5 11 1015.3 1015.3 0.0
06/11:00am 14.4 11.0 1.7 42 5.5 WNW 9 20 5 11 1015.6 1015.6 0.0
06/10:30am 14.2 10.0 1.8 43 5.4 WNW 13 28 7 15 1015.9 1015.9 0.0
06/10:00am 13.5 10.2 2.7 48 4.8 WNW 9 19 5 10 1016.2 1016.2 0.0
06/09:30am 12.9 10.4 3.6 53 4.2 W 6 13 3 7 1016.4 1016.4 0.0
06/09:00am 12.2 8.4 3.7 56 3.8 NW 13 24 7 13 1016.2 1016.2 0.0
06/08:30am 11.6 8.8 3.1 56 3.7 WNW 7 13 4 7 1016.3 1016.3 0.0
06/08:00am 11.0 7.4 3.1 58 3.4 WNW 11 19 6 10 1016.0 1016.0 0.0
06/07:30am 10.4 7.1 4.5 67 2.6 WNW 11 24 6 13 1016.1 1016.1 0.0
06/07:00am 9.3 5.8 3.5 67 2.5 WNW 11 20 6 11 1016.0 1016.0 0.0
06/06:30am 8.9 6.1 2.9 66 2.6 NW 7 11 4 6 1016.1 1016.1 0.0
06/06:00am 10.1 6.6 1.5 55 3.6 WNW 9 15 5 8 1016.0 1016.0 0.0
06/05:30am 10.4 6.9 1.0 52 3.9 WNW 9 15 5 8 1015.9 1015.9 0.0
06/05:00am 10.4 7.2 0.7 51 4.0 WNW 7 13 4 7 1016.0 1016.0 0.0
06/04:30am 10.9 7.7 0.9 50 4.1 WNW 7 15 4 8 1016.1 1016.1 0.0
06/04:00am 10.5 7.4 1.3 53 3.8 WNW 7 13 4 7 1016.3 1016.3 0.0
06/03:30am 10.8 8.1 2.6 57 3.5 NW 6 11 3 6 1016.5 1016.5 0.0
06/03:00am 11.1 8.4 2.7 56 3.6 NW 6 11 3 6 1016.6 1016.6 0.0
06/02:30am 10.8 7.9 2.4 56 3.6 WNW 7 13 4 7 1016.9 1016.9 0.0
06/02:00am 11.1 8.0 1.6 52 4.0 WNW 7 15 4 8 1017.1 1017.1 0.0
06/01:30am 11.2 8.2 2.2 54 3.9 WNW 7 15 4 8 1017.4 1017.4 0.0
06/01:00am 11.4 8.0 1.6 51 4.1 WNW 9 15 5 8 1017.5 1017.5 0.0
06/12:30am 11.3 7.9 2.1 53 3.9 WNW 9 13 5 7 1017.7 1017.7 0.0
06/12:00am 11.3 8.1 3.1 57 3.6 WNW 9 15 5 8 1017.8 1017.8 0.0
 
Date/Time
EST
Temp
°C
App
Temp
°C
Dew
Point
Rel
Hum
%
Delta-T
°C
Wind Press
QNH
hPa
Press
MSL
hPa
Rain
since 9 am
mm
Dir
 
Spd
km/h
Gust
km/h
Spd
kts
Gust
kts
05/11:30pm 10.6 8.1 4.5 66 2.7 WNW 7 13 4 7 1018.0 1018.0 0.0
05/11:00pm 10.6 8.2 6.9 78 1.7 N 9 11 5 6 1018.1 1018.1 0.0
05/10:30pm 10.9 8.8 6.8 76 1.9 NNW 7 11 4 6 1018.1 1018.1 0.0
05/10:00pm 11.3 9.2 6.8 74 2.1 NNW 7 9 4 5 1018.0 1018.0 0.0
05/09:30pm 11.9 9.6 7.4 74 2.2 NNW 9 11 5 6 1018.2 1018.2 0.0
05/09:00pm 11.6 9.4 5.5 66 2.8 NW 6 7 3 4 1018.3 1018.3 0.0
05/08:30pm 12.0 9.6 5.4 64 3.1 NW 7 9 4 5 1018.4 1018.4 0.0
05/08:00pm 12.3 10.2 5.9 65 3.0 NW 6 9 3 5 1018.7 1018.7 0.0
05/07:30pm 12.2 9.9 5.8 65 3.0 NW 7 9 4 5 1018.6 1018.6 0.0
05/07:00pm 12.8 10.9 8.9 77 2.0 NNW 9 11 5 6 1018.4 1018.4 0.0
05/06:30pm 13.4 11.2 9.5 77 2.0 NNW 11 13 6 7 1018.2 1018.2 0.0
05/06:00pm 14.1 12.2 9.1 72 2.5 NNW 9 11 5 6 1018.1 1018.1 0.0
05/05:30pm 14.6 11.9 8.8 68 2.9 N 13 15 7 8 1017.9 1017.9 0.0
05/05:00pm 14.6 12.6 8.5 67 3.1 N 9 13 5 7 1018.0 1018.0 0.0
05/04:30pm 14.7 11.8 8.0 64 3.3 NNE 13 17 7 9 1017.9 1017.9 0.0
05/04:00pm 15.1 12.7 8.6 65 3.3 NNE 11 13 6 7 1018.0 1018.0 0.0
05/03:30pm 15.4 13.4 7.2 58 4.0 NE 7 9 4 5 1018.2 1018.2 0.0
05/03:00pm 15.7 13.3 5.3 50 4.9 NE 7 9 4 5 1018.2 1018.2 0.0
05/02:30pm 17.3 14.8 4.6 43 6.0 NE 7 9 4 5 1018.2 1018.2 0.0
05/02:00pm 17.1 14.0 3.8 41 6.2 NE 9 13 5 7 1018.3 1018.3 0.0
05/01:30pm 17.6 14.9 2.8 37 6.8 NE 6 7 3 4 1018.5 1018.5 0.0
05/01:00pm 18.5 16.0 3.6 37 7.0 NE 6 7 3 4 1018.9 1018.9 0.0
05/12:30pm 17.4 14.8 3.0 38 6.6 N 6 7 3 4 1019.5 1019.5 0.0
05/12:00pm 16.6 14.2 1.9 37 6.5 NNW 4 9 2 5 1020.1 1020.1 0.0
05/11:30am 16.5 13.9 3.2 41 6.1 NW 6 11 3 6 1020.5 1020.5 0.0
05/11:00am 15.4 12.7 2.6 42 5.7 WNW 6 11 3 6 1021.1 1021.1 0.0
05/10:30am 14.1 11.1 2.0 44 5.3 W 7 13 4 7 1021.7 1021.7 0.0
05/10:00am 12.9 9.6 2.5 49 4.5 W 9 17 5 9 1021.8 1021.8 0.0
05/09:30am 13.1 10.4 2.6 49 4.6 WNW 6 9 3 5 1021.7 1021.7 0.0
05/09:00am 12.6 10.0 3.3 53 4.1 WNW 6 9 3 5 1021.7 1021.7 0.0
05/08:30am 10.2 6.9 2.3 58 3.4 WNW 9 15 5 8 1021.7 1021.7 0.0
05/08:00am 8.8 5.1 2.4 64 2.7 WNW 11 15 6 8 1021.6 1021.6 0.0
05/07:30am 8.2 4.3 1.1 61 2.9 WNW 11 17 6 9 1021.5 1021.5 0.0
05/07:00am 8.5 4.2 0.7 58 3.1 W 13 20 7 11 1021.4 1021.4 0.0
05/06:30am 8.9 3.2 0.4 55 3.4 W 20 24 11 13 1021.1 1021.1 0.0
05/06:00am 9.3 3.8 0.7 55 3.5 W 19 24 10 13 1021.1 1021.1 0.0
05/05:30am 9.2 3.5 0.6 55 3.5 W 20 24 11 13 1020.9 1020.9 0.0
05/05:00am 8.1 2.7 1.3 62 2.8 W 19 26 10 14 1021.0 1021.0 0.0
05/04:30am 8.2 2.6 1.4 62 2.8 W 20 24 11 13 1020.8 1020.8 0.0
05/04:00am 8.7 3.2 0.9 58 3.1 W 19 24 10 13 1020.8 1020.8 0.0
05/03:30am 8.7 3.3 1.1 59 3.1 W 19 24 10 13 1020.8 1020.8 0.0
05/03:00am 8.4 3.2 2.2 65 2.6 W 19 22 10 12 1021.1 1021.1 0.0
05/02:30am 8.3 3.6 3.0 69 2.2 W 17 20 9 11 1021.3 1021.3 0.0
05/02:00am 8.4 4.1 3.5 71 2.1 WSW 15 19 8 10 1021.3 1021.3 0.0
05/01:30am 9.4 4.4 1.6 58 3.2 WSW 17 20 9 11 1021.3 1021.3 0.0
05/01:00am 9.8 4.8 1.2 55 3.5 W 17 19 9 10 1021.3 1021.3 0.0
05/12:30am 9.1 4.2 1.8 60 3.0 W 17 20 9 11 1021.4 1021.4 0.0
05/12:00am 9.8 4.9 1.7 57 3.4 W 17 20 9 11 1021.4 1021.4 0.0
 
Date/Time
EST
Temp
°C
App
Temp
°C
Dew
Point
Rel
Hum
%
Delta-T
°C
Wind Press
QNH
hPa
Press
MSL
hPa
Rain
since 9 am
mm
Dir
 
Spd
km/h
Gust
km/h
Spd
kts
Gust
kts
04/11:30pm 9.7 4.8 2.1 59 3.2 W 17 20 9 11 1021.4 1021.4 0.0
04/11:00pm 9.7 4.9 2.8 62 2.9 W 17 19 9 10 1021.5 1021.5 0.0
04/10:30pm 10.4 6.4 3.0 60 3.2 W 13 17 7 9 1021.5 1021.5 0.0
04/10:00pm 11.0 6.6 2.8 57 3.5 W 15 17 8 9 1021.6 1021.6 0.0
04/09:30pm 11.6 7.5 2.4 53 4.0 W 13 17 7 9 1021.7 1021.7 0.0
04/09:00pm 11.1 6.8 3.2 58 3.4 W 15 17 8 9 1021.8 1021.8 0.0
04/08:30pm 11.1 7.2 3.6 60 3.3 W 13 15 7 8 1021.8 1021.8 0.0
04/08:00pm 11.5 8.1 4.0 60 3.3 WSW 11 17 6 9 1021.8 1021.8 0.0
04/07:30pm 12.0 8.7 4.7 61 3.3 W 11 13 6 7 1021.7 1021.7 0.0
04/07:00pm 12.7 10.1 4.4 57 3.8 WSW 7 13 4 7 1021.6 1021.6 0.0
04/06:30pm 13.9 10.8 3.7 50 4.6 S 9 13 5 7 1021.3 1021.3 0.0
04/06:00pm 13.9 10.6 4.8 54 4.2 S 11 17 6 9 1021.0 1021.0 0.0
04/05:30pm 13.7 9.8 5.3 57 3.9 S 15 20 8 11 1020.8 1020.8 0.0
04/05:00pm 13.7 10.2 5.6 58 3.8 S 13 19 7 10 1020.7 1020.7 0.0
04/04:30pm 14.1 10.0 4.4 52 4.5 S 15 20 8 11 1020.3 1020.3 0.0
04/04:00pm 14.3 10.5 4.0 50 4.7 S 13 19 7 10 1020.2 1020.2 0.0
04/03:30pm 15.1 12.1 4.2 48 5.0 SSW 9 19 5 10 1020.1 1020.1 0.0
04/03:00pm 15.6 12.5 0.2 35 6.5 SW 6 9 3 5 1019.9 1019.9 0.0
04/02:30pm 16.6 13.5 0.3 33 7.0 W 6 13 3 7 1019.5 1019.5 0.0
04/02:00pm 16.1 12.8 0.3 34 6.8 WNW 7 13 4 7 1019.4 1019.4 0.0
04/01:30pm 16.4 13.2 0.9 35 6.8 W 7 19 4 10 1019.6 1019.6 0.0
04/01:00pm 16.3 12.8 1.2 36 6.6 W 9 19 5 10 1020.0 1020.0 0.0
04/12:30pm 15.9 12.2 2.3 40 6.1 W 11 24 6 13 1020.2 1020.2 0.0
04/12:00pm 15.7 12.1 2.8 42 5.8 WNW 11 20 6 11 1020.5 1020.5 0.0
04/11:30am 15.3 12.0 2.5 42 5.7 WNW 9 22 5 12 1021.5 1021.5 0.0
04/11:00am 14.7 12.5 6.0 56 4.1 NW 7 15 4 8 1021.9 1021.9 0.0
04/10:30am 14.9 13.3 8.6 66 3.2 NNW 7 11 4 6 1022.4 1022.4 0.0
04/10:00am 14.1 12.6 9.1 72 2.5 NNW 7 9 4 5 1022.5 1022.5 0.0
04/09:30am 11.7 10.0 7.6 76 2.0 NNW 6 11 3 6 1022.6 1022.6 0.0
04/09:00am 9.0 7.2 7.1 88 0.9 NW 6 9 3 5 1022.6 1022.6 0.0
04/08:30am 8.1 6.2 6.6 90 0.7 NW 6 9 3 5 1022.5 1022.5 0.0
04/08:00am 7.9 5.4 6.4 90 0.7 NNW 9 11 5 6 1022.6 1022.6 0.0
04/07:30am 7.9 5.0 6.5 91 0.6 NNW 11 13 6 7 1022.5 1022.5 0.0
04/07:00am 7.8 4.5 6.3 90 0.7 NNW 13 17 7 9 1022.6 1022.6 0.0
04/06:30am 7.2 4.9 5.7 90 0.7 NW 7 15 4 8 1022.7 1022.7 0.0
04/06:00am 7.4 4.8 5.9 90 0.7 NW 9 15 5 8 1022.7 1022.7 0.0
04/05:30am 7.7 4.9 5.3 85 1.1 NNW 9 15 5 8 1022.1 1022.1 0.0
04/05:00am 7.1 4.6 4.8 85 1.0 NW 7 11 4 6 1022.5 1022.5 0.0
04/04:30am 7.2 4.7 4.5 83 1.2 WNW 7 13 4 7 1022.5 1022.5 0.0
04/04:00am 7.7 4.9 5.0 83 1.2 WNW 9 13 5 7 1022.9 1022.9 0.0
04/03:30am 8.4 5.2 5.3 81 1.4 WNW 11 19 6 10 1023.0 1023.0 0.0
04/03:00am 9.1 6.7 5.3 77 1.7 WNW 7 11 4 6 1023.2 1023.2 0.0
04/02:30am 9.4 7.2 5.4 76 1.8 WNW 6 9 3 5 1023.4 1023.4 0.0
04/02:00am 9.8 7.6 6.0 77 1.7 WNW 7 13 4 7 1023.6 1023.6 0.0
04/01:30am 9.9 7.3 5.9 76 1.8 WNW 9 13 5 7 1024.0 1024.0 0.0
04/01:00am 9.8 7.5 5.8 76 1.8 WNW 7 11 4 6 1024.1 1024.1 0.0
04/12:30am 9.8 7.6 6.2 78 1.7 W 7 9 4 5 1024.3 1024.3 0.0
04/12:00am 10.1 7.5 6.3 77 1.8 W 9 11 5 6 1024.7 1024.7 0.0
 
Date/Time
EST
Temp
°C
App
Temp
°C
Dew
Point
Rel
Hum
%
Delta-T
°C
Wind Press
QNH
hPa
Press
MSL
hPa
Rain
since 9 am
mm
Dir
 
Spd
km/h
Gust
km/h
Spd
kts
Gust
kts
03/11:30pm 10.4 7.5 6.5 77 1.8 W 11 13 6 7 1024.8 1024.8 0.0
03/11:00pm 10.2 7.3 6.5 78 1.7 W 11 13 6 7 1025.0 1025.0 0.0
03/10:30pm 10.4 7.9 6.5 77 1.8 W 9 11 5 6 1025.2 1025.2 0.0
03/10:00pm 10.9 9.0 6.6 75 2.0 W 6 7 3 4 1025.3 1025.3 0.0
03/09:30pm 10.8 8.9 6.7 76 1.9 W 6 9 3 5 1025.4 1025.4 0.0
03/09:00pm 11.1 9.2 6.6 74 2.1 W 6 7 3 4 1025.4 1025.4 0.0
03/08:30pm 11.3 9.8 6.6 73 2.2 WSW 4 6 2 3 1025.5 1025.5 0.0
03/08:00pm 11.6 9.7 6.9 73 2.2 W 6 7 3 4 1025.5 1025.5 0.0
03/07:30pm 11.5 9.7 7.2 75 2.1 WSW 6 9 3 5 1025.5 1025.5 0.0
03/07:00pm 12.0 9.8 6.3 68 2.7 WSW 7 9 4 5 1025.6 1025.6 0.0
03/06:30pm 12.4 10.8 6.2 66 2.9 SW 4 7 2 4 1025.4 1025.4 0.0
03/06:00pm 12.4 10.5 6.9 69 2.6 SW 6 9 3 5 1025.1 1025.1 0.0
03/05:30pm 13.4 10.7 7.4 67 2.9 S 11 19 6 10 1024.9 1024.9 0.0
03/05:00pm 13.4 10.6 7.0 65 3.1 SSW 11 17 6 9 1024.8 1024.8 0.0
03/04:30pm 13.7 10.7 7.9 68 2.9 S 13 20 7 11 1024.6 1024.6 0.0
03/04:00pm 13.8 9.6 7.6 66 3.0 SSW 19 26 10 14 1024.7 1024.7 0.0
03/03:30pm 14.2 10.2 8.2 67 3.0 SSW 19 24 10 13 1024.6 1024.6 0.0

Other Formats:

Comma delimited format used in spreadsheet applications
http://www.bom.gov.au/fwo/IDN60801/IDN60801.95770.axf

JavaScript Object Notation format (JSON) in row-major order
http://www.bom.gov.au/fwo/IDN60801/IDN60801.95770.json